Time,TemperatureF,DewpointF,PressureIn,WindDirection,WindDirectionDegrees,WindSpeedMPH,WindSpeedGustMPH,Humidity,HourlyPrecipIn,Conditions,Clouds,dailyrainin,SoftwareType,DateUTC
2013-07-20 00:07:00,70.1,69.0,30.22,NNE,23,0.0,0.0,96,0.00,,,0.00,weatherlink.com 1.10,2013-07-20 04:07:00,
2013-07-20 00:23:00,69.9,69.0,30.22,NNE,23,0.0,0.0,96,0.00,,,0.00,weatherlink.com 1.10,2013-07-20 04:23:00,
2013-07-20 00:38:00,69.8,69.0,30.22,NNE,23,0.0,0.0,96,0.00,,,0.00,weatherlink.com 1.10,2013-07-20 04:38:00,
2013-07-20 00:53:00,69.8,69.0,30.21,NNE,23,0.0,0.0,96,0.00,,,0.00,weatherlink.com 1.10,2013-07-20 04:53:00,
2013-07-20 01:08:00,69.7,69.0,30.21,NNE,23,0.0,0.0,96,0.00,,,0.00,weatherlink.com 1.10,2013-07-20 05:08:00,
2013-07-20 01:23:00,69.5,68.0,30.20,NNE,23,0.0,0.0,96,0.00,,,0.00,weatherlink.com 1.10,2013-07-20 05:23:00,
2013-07-20 01:38:00,69.4,69.0,30.20,NNE,23,0.0,0.0,97,0.00,,,0.00,weatherlink.com 1.10,2013-07-20 05:38:00,
2013-07-20 01:53:00,69.2,68.0,30.19,NNE,24,0.0,0.0,97,0.00,,,0.00,weatherlink.com 1.10,2013-07-20 05:53:00,
2013-07-20 02:08:00,69.2,68.0,30.19,NNE,23,0.0,0.0,97,0.00,,,0.00,weatherlink.com 1.10,2013-07-20 06:08:00,
2013-07-20 02:23:00,69.0,68.0,30.19,NNE,25,0.0,0.0,97,0.00,,,0.00,weatherlink.com 1.10,2013-07-20 06:23:00,
2013-07-20 02:38:00,68.9,68.0,30.18,NNE,25,0.0,0.0,97,0.00,,,0.00,weatherlink.com 1.10,2013-07-20 06:38:00,
2013-07-20 02:53:00,68.8,68.0,30.17,ENE,63,0.0,0.0,97,0.00,,,0.00,weatherlink.com 1.10,2013-07-20 06:53:00,
2013-07-20 03:08:00,68.8,68.0,30.17,ENE,64,0.0,0.0,97,0.00,,,0.00,weatherlink.com 1.10,2013-07-20 07:08:00,
2013-07-20 03:23:00,68.5,68.0,30.17,ENE,63,0.0,0.0,97,0.00,,,0.00,weatherlink.com 1.10,2013-07-20 07:23:00,
2013-07-20 03:38:00,68.6,68.0,30.17,ENE,64,0.0,0.0,98,0.00,,,0.00,weatherlink.com 1.10,2013-07-20 07:38:00,
2013-07-20 03:53:00,68.5,68.0,30.18,ENE,64,0.0,0.0,98,0.00,,,0.00,weatherlink.com 1.10,2013-07-20 07:53:00,
2013-07-20 04:08:00,68.4,68.0,30.17,ENE,64,0.0,0.0,98,0.00,,,0.00,weatherlink.com 1.10,2013-07-20 08:08:00,
2013-07-20 04:23:00,68.3,68.0,30.18,ENE,64,0.0,0.0,98,0.00,,,0.00,weatherlink.com 1.10,2013-07-20 08:23:00,
2013-07-20 04:38:00,68.2,68.0,30.18,ENE,64,0.0,0.0,98,0.00,,,0.00,weatherlink.com 1.10,2013-07-20 08:38:00,
2013-07-20 04:54:00,68.2,68.0,30.17,ENE,64,0.0,0.0,98,0.00,,,0.00,weatherlink.com 1.10,2013-07-20 08:54:00,
2013-07-20 05:08:00,68.0,68.0,30.17,ENE,63,0.0,0.0,98,0.00,,,0.00,weatherlink.com 1.10,2013-07-20 09:08:00,
2013-07-20 05:23:00,68.1,68.0,30.18,ENE,63,0.0,0.0,98,0.00,,,0.00,weatherlink.com 1.10,2013-07-20 09:23:00,
2013-07-20 05:38:00,68.1,68.0,30.18,ENE,64,0.0,0.0,98,0.00,,,0.00,weatherlink.com 1.10,2013-07-20 09:38:00,
2013-07-20 05:53:00,68.4,68.0,30.18,ENE,63,0.0,0.0,98,0.00,,,0.00,weatherlink.com 1.10,2013-07-20 09:53:00,
2013-07-20 06:08:00,68.5,68.0,30.18,ENE,64,0.0,0.0,98,0.00,,,0.00,weatherlink.com 1.10,2013-07-20 10:08:00,
2013-07-20 06:23:00,68.6,68.0,30.17,ENE,63,0.0,0.0,98,0.00,,,0.00,weatherlink.com 1.10,2013-07-20 10:23:00,
2013-07-20 06:38:00,68.8,68.0,30.18,ENE,64,0.0,0.0,98,0.00,,,0.00,weatherlink.com 1.10,2013-07-20 10:38:00,
2013-07-20 06:53:00,68.6,68.0,30.18,ENE,64,0.0,0.0,98,0.00,,,0.00,weatherlink.com 1.10,2013-07-20 10:53:00,
2013-07-20 07:08:00,68.7,68.0,30.18,ENE,63,0.0,0.0,98,0.00,,,0.00,weatherlink.com 1.10,2013-07-20 11:08:00,
2013-07-20 07:23:00,68.8,68.0,30.18,ENE,64,0.0,0.0,98,0.00,,,0.00,weatherlink.com 1.10,2013-07-20 11:23:00,
2013-07-20 07:38:00,69.1,69.0,30.19,ENE,63,0.0,0.0,98,0.00,,,0.00,weatherlink.com 1.10,2013-07-20 11:38:00,
2013-07-20 07:53:00,69.2,69.0,30.19,ENE,64,0.0,0.0,98,0.00,,,0.00,weatherlink.com 1.10,2013-07-20 11:53:00,
2013-07-20 08:08:00,69.8,69.0,30.19,ENE,70,0.0,0.0,97,0.00,,,0.00,weatherlink.com 1.10,2013-07-20 12:08:00,
2013-07-20 08:23:00,70.5,70.0,30.19,ENE,69,0.0,0.0,97,0.00,,,0.00,weatherlink.com 1.10,2013-07-20 12:23:00,
2013-07-20 08:38:00,72.6,71.0,30.19,SW,228,0.0,1.0,93,0.00,,,0.00,weatherlink.com 1.10,2013-07-20 12:38:00,
2013-07-20 08:53:00,75.0,72.0,30.19,SW,219,0.0,1.0,89,0.00,,,0.00,weatherlink.com 1.10,2013-07-20 12:53:00,
2013-07-20 09:08:00,76.3,73.0,30.19,SW,226,0.0,2.0,90,0.00,,,0.00,weatherlink.com 1.10,2013-07-20 13:08:00,
2013-07-20 09:23:00,77.9,72.0,30.19,WSW,252,0.0,2.0,83,0.00,,,0.00,weatherlink.com 1.10,2013-07-20 13:23:00,
2013-07-20 09:38:00,79.4,72.0,30.19,WNW,287,1.0,2.0,78,0.00,,,0.00,weatherlink.com 1.10,2013-07-20 13:38:00,
2013-07-20 09:53:00,80.7,73.0,30.19,East,101,1.0,2.0,77,0.00,,,0.00,weatherlink.com 1.10,2013-07-20 13:53:00,
2013-07-20 10:08:00,81.6,75.0,30.19,South,177,0.0,3.0,80,0.00,,,0.00,weatherlink.com 1.10,2013-07-20 14:08:00,
2013-07-20 10:24:00,82.7,74.0,30.19,ESE,109,0.0,2.0,75,0.00,,,0.00,weatherlink.com 1.10,2013-07-20 14:24:00,
2013-07-20 10:39:00,83.4,76.0,30.19,East,98,1.0,2.0,78,0.00,,,0.00,weatherlink.com 1.10,2013-07-20 14:39:00,
2013-07-20 10:54:00,83.4,73.0,30.19,SE,125,1.0,3.0,70,0.00,,,0.00,weatherlink.com 1.10,2013-07-20 14:54:00,
2013-07-20 11:09:00,84.0,73.0,30.19,WNW,301,1.0,4.0,69,0.00,,,0.00,weatherlink.com 1.10,2013-07-20 15:09:00,
2013-07-20 11:24:00,84.7,71.0,30.18,WSW,253,0.0,3.0,64,0.00,,,0.00,weatherlink.com 1.10,2013-07-20 15:24:00,
2013-07-20 11:39:00,83.0,74.0,30.18,NE,43,1.0,8.0,74,0.01,,,0.01,weatherlink.com 1.10,2013-07-20 15:39:00,
2013-07-20 11:54:00,76.4,70.0,30.18,NE,38,0.0,1.0,80,0.07,,,0.07,weatherlink.com 1.10,2013-07-20 15:54:00,
2013-07-20 12:10:00,73.9,72.0,30.18,NE,40,0.0,1.0,93,0.11,,,0.11,weatherlink.com 1.10,2013-07-20 16:10:00,
2013-07-20 12:24:00,77.7,76.0,30.17,NE,41,1.0,2.0,93,0.11,,,0.11,weatherlink.com 1.10,2013-07-20 16:24:00,
2013-07-20 12:39:00,82.2,78.0,30.17,NE,53,1.0,3.0,86,0.10,,,0.11,weatherlink.com 1.10,2013-07-20 16:39:00,
2013-07-20 12:54:00,82.0,73.0,30.16,SSW,205,0.0,3.0,74,0.04,,,0.11,weatherlink.com 1.10,2013-07-20 16:54:00,
2013-07-20 13:09:00,77.5,72.0,30.17,East,90,2.0,5.0,83,0.00,,,0.11,weatherlink.com 1.10,2013-07-20 17:09:00,
2013-07-20 13:24:00,74.0,69.0,30.18,WSW,245,6.0,6.0,83,0.03,,,0.14,weatherlink.com 1.10,2013-07-20 17:24:00,
2013-07-20 13:39:00,70.7,68.0,30.18,East,82,1.0,2.0,91,0.05,,,0.16,weatherlink.com 1.10,2013-07-20 17:39:00,
2013-07-20 13:54:00,69.5,68.0,30.18,West,263,0.0,2.0,93,0.16,,,0.27,weatherlink.com 1.10,2013-07-20 17:54:00,
2013-07-20 14:09:00,69.0,68.0,30.16,WNW,287,0.0,1.0,95,0.18,,,0.29,weatherlink.com 1.10,2013-07-20 18:09:00,
2013-07-20 14:24:00,69.3,68.0,30.16,WNW,287,0.0,0.0,96,0.15,,,0.29,weatherlink.com 1.10,2013-07-20 18:24:00,
2013-07-20 14:54:00,69.8,68.0,30.16,SE,145,0.0,0.0,95,0.02,,,0.29,weatherlink.com 1.10,2013-07-20 18:54:00,
2013-07-20 16:09:00,73.1,71.0,30.14,WSW,238,0.0,1.0,92,0.00,,,0.29,weatherlink.com 1.10,2013-07-20 20:09:00,
2013-07-20 16:24:00,74.0,70.0,30.15,WSW,238,0.0,0.0,88,0.00,,,0.29,weatherlink.com 1.10,2013-07-20 20:24:00,
2013-07-20 16:39:00,73.5,70.0,30.15,ENE,62,0.0,1.0,89,0.00,,,0.29,weatherlink.com 1.10,2013-07-20 20:39:00,
2013-07-20 16:54:00,73.8,70.0,30.14,East,82,0.0,0.0,87,0.00,,,0.29,weatherlink.com 1.10,2013-07-20 20:54:00,
2013-07-20 17:09:00,74.0,71.0,30.14,ESE,105,0.0,0.0,89,0.00,,,0.29,weatherlink.com 1.10,2013-07-20 21:09:00,
2013-07-20 17:24:00,73.9,71.0,30.15,ENE,68,0.0,1.0,91,0.00,,,0.29,weatherlink.com 1.10,2013-07-20 21:24:00,
2013-07-20 17:39:00,74.2,71.0,30.14,ENE,69,0.0,0.0,88,0.00,,,0.29,weatherlink.com 1.10,2013-07-20 21:39:00,
2013-07-20 17:54:00,74.4,71.0,30.13,ENE,70,0.0,0.0,89,0.00,,,0.29,weatherlink.com 1.10,2013-07-20 21:54:00,
2013-07-20 18:24:00,75.4,70.0,30.12,West,262,0.0,0.0,83,0.00,,,0.29,weatherlink.com 1.10,2013-07-20 22:24:00,
2013-07-20 18:54:00,75.7,71.0,30.12,West,262,0.0,0.0,85,0.00,,,0.29,weatherlink.com 1.10,2013-07-20 22:54:00,
2013-07-20 19:24:00,75.5,71.0,30.10,WSW,246,0.0,1.0,85,0.00,,,0.29,weatherlink.com 1.10,2013-07-20 23:24:00,
2013-07-20 19:39:00,75.2,71.0,30.11,WSW,248,0.0,0.0,87,0.00,,,0.29,weatherlink.com 1.10,2013-07-20 23:39:00,
2013-07-20 19:54:00,74.2,72.0,30.11,WSW,246,0.0,0.0,91,0.00,,,0.29,weatherlink.com 1.10,2013-07-20 23:54:00,
2013-07-20 20:09:00,74.2,72.0,30.12,WSW,248,0.0,0.0,92,0.00,,,0.29,weatherlink.com 1.10,2013-07-21 00:09:00,
2013-07-20 20:24:00,73.7,71.0,30.13,SE,139,0.0,0.0,92,0.00,,,0.29,weatherlink.com 1.10,2013-07-21 00:24:00,
2013-07-20 20:54:00,71.7,70.0,30.13,SE,138,0.0,0.0,95,0.00,,,0.29,weatherlink.com 1.10,2013-07-21 00:54:00,
2013-07-20 21:09:00,71.2,70.0,30.14,SE,139,0.0,0.0,96,0.00,,,0.29,weatherlink.com 1.10,2013-07-21 01:09:00,
2013-07-20 21:24:00,71.0,70.0,30.14,SE,138,0.0,0.0,96,0.00,,,0.29,weatherlink.com 1.10,2013-07-21 01:24:00,
2013-07-20 21:54:00,70.5,69.0,30.16,SSE,149,0.0,0.0,96,0.00,,,0.29,weatherlink.com 1.10,2013-07-21 01:54:00,
2013-07-20 22:09:00,70.1,69.0,30.17,SSE,149,0.0,0.0,97,0.00,,,0.29,weatherlink.com 1.10,2013-07-21 02:09:00,
2013-07-20 22:24:00,69.8,69.0,30.17,SSE,149,0.0,0.0,97,0.00,,,0.29,weatherlink.com 1.10,2013-07-21 02:24:00,
2013-07-20 22:39:00,69.6,69.0,30.18,SSE,150,0.0,0.0,97,0.00,,,0.29,weatherlink.com 1.10,2013-07-21 02:39:00,
2013-07-20 22:54:00,69.5,69.0,30.18,SSE,151,0.0,0.0,98,0.00,,,0.29,weatherlink.com 1.10,2013-07-21 02:54:00,
2013-07-20 23:09:00,69.3,69.0,30.18,SSE,151,0.0,0.0,97,0.00,,,0.29,weatherlink.com 1.10,2013-07-21 03:09:00,
2013-07-20 23:24:00,69.0,68.0,30.18,SSE,151,0.0,0.0,97,0.00,,,0.29,weatherlink.com 1.10,2013-07-21 03:24:00,
2013-07-20 23:40:00,68.8,68.0,30.18,SSE,151,0.0,0.0,98,0.00,,,0.29,weatherlink.com 1.10,2013-07-21 03:40:00,
2013-07-20 23:55:00,68.5,68.0,30.18,SSE,150,0.0,0.0,98,0.00,,,0.29,weatherlink.com 1.10,2013-07-21 03:55:00,